createdAt,value
2023-03-06T00:01:05.236Z,15.05
2023-03-06T00:03:31.756Z,10.38
2023-03-06T00:05:58.404Z,11.60
2023-03-06T00:08:26.027Z,11.20
2023-03-06T00:10:52.401Z,13.30
2023-03-06T00:13:19.238Z,13.13
2023-03-06T00:15:46.970Z,12.43
2023-03-06T00:18:14.192Z,12.82
2023-03-06T00:20:43.158Z,10.57
2023-03-06T00:23:11.107Z,11.85
2023-03-06T00:25:37.449Z,13.45
2023-03-06T00:28:04.874Z,9.63
2023-03-06T00:32:57.664Z,12.20
2023-03-06T00:35:24.048Z,10.57
2023-03-06T00:37:50.361Z,10.88
2023-03-06T00:40:19.217Z,11.98
2023-03-06T00:42:46.206Z,12.77
2023-03-06T00:45:13.259Z,12.57
2023-03-06T00:47:40.107Z,10.15
2023-03-06T00:50:07.505Z,11.75
2023-03-06T00:55:13.331Z,11.32
2023-03-06T00:57:39.762Z,14.52
2023-03-06T01:00:07.493Z,10.35
2023-03-06T01:02:33.938Z,10.10
2023-03-06T01:05:00.565Z,11.95
2023-03-06T01:07:27.081Z,10.00
2023-03-06T01:09:53.402Z,8.35
2023-03-06T01:12:22.144Z,7.50
2023-03-06T01:14:49.595Z,8.80
2023-03-06T01:17:16.046Z,7.90
2023-03-06T01:19:42.329Z,7.70
2023-03-06T01:22:08.718Z,9.27
2023-03-06T01:24:35.040Z,9.88
2023-03-06T01:27:01.399Z,8.95
2023-03-06T01:29:27.739Z,6.78
2023-03-06T01:31:54.107Z,8.82
2023-03-06T01:34:20.488Z,6.45
2023-03-06T01:36:46.792Z,6.72
2023-03-06T01:39:13.090Z,7.18
2023-03-06T01:41:39.411Z,6.38
2023-03-06T01:44:05.705Z,6.35
2023-03-06T01:46:33.926Z,7.30
2023-03-06T01:51:38.011Z,7.55
2023-03-06T01:54:11.663Z,6.88
2023-03-06T01:56:41.942Z,11.23
2023-03-06T01:59:08.491Z,6.18
2023-03-06T02:01:35.786Z,6.97
2023-03-06T02:04:02.288Z,7.43
2023-03-06T02:06:28.622Z,8.80
2023-03-06T02:08:55.889Z,6.95
2023-03-06T02:11:24.339Z,7.30
2023-03-06T02:13:53.530Z,9.32
2023-03-06T02:16:24.558Z,10.23
2023-03-06T02:18:51.334Z,8.88
2023-03-06T02:21:25.136Z,12.23
2023-03-06T02:24:10.017Z,10.80
2023-03-06T02:26:38.189Z,12.07
2023-03-06T02:29:04.924Z,9.45
2023-03-06T02:31:33.868Z,11.43
2023-03-06T02:34:06.524Z,13.40
2023-03-06T02:36:37.769Z,15.30
2023-03-06T02:39:05.186Z,10.77
2023-03-06T02:43:57.954Z,11.73
2023-03-06T02:46:24.318Z,15.38
2023-03-06T02:48:50.645Z,11.02
2023-03-06T02:51:16.986Z,11.23
2023-03-06T02:53:43.270Z,13.45
2023-03-06T02:56:09.595Z,9.40
2023-03-06T02:58:35.955Z,12.27
2023-03-06T03:01:02.288Z,11.15
2023-03-06T03:03:28.719Z,11.10
2023-03-06T03:05:55.297Z,10.40
2023-03-06T03:08:21.916Z,10.70
2023-03-06T03:10:48.234Z,10.45
2023-03-06T03:13:14.524Z,11.27
2023-03-06T03:15:40.922Z,12.25
2023-03-06T03:18:07.247Z,9.35
2023-03-06T03:22:59.804Z,11.57
2023-03-06T03:25:26.139Z,11.20
2023-03-06T03:27:52.484Z,12.98
2023-03-06T03:30:18.922Z,11.00
2023-03-06T03:32:45.259Z,11.93
2023-03-06T03:35:11.798Z,9.18
2023-03-06T03:37:38.464Z,9.73
2023-03-06T03:42:29.902Z,10.75
2023-03-06T03:44:56.219Z,11.10
2023-03-06T03:47:22.506Z,11.65
2023-03-06T03:49:48.826Z,11.70
2023-03-06T03:52:15.460Z,10.05
2023-03-06T03:54:41.763Z,11.23
2023-03-06T03:57:08.157Z,11.52
2023-03-06T04:02:11.670Z,8.23
2023-03-06T04:04:38.215Z,7.65
2023-03-06T04:09:41.616Z,9.38
2023-03-06T04:12:08.163Z,6.78
2023-03-06T04:17:13.474Z,8.77
2023-03-06T04:19:39.800Z,8.93
2023-03-06T04:22:06.097Z,8.68
2023-03-06T04:24:32.417Z,10.02
2023-03-06T04:26:58.715Z,11.52
2023-03-06T04:29:25.059Z,9.50
2023-03-06T04:31:51.353Z,10.38
2023-03-06T04:34:17.659Z,11.05
2023-03-06T04:36:43.973Z,7.30
2023-03-06T04:39:11.698Z,4.75
2023-03-06T04:41:39.322Z,7.07
2023-03-06T04:44:06.700Z,6.82
2023-03-06T04:48:59.744Z,5.60
2023-03-06T04:51:26.479Z,4.95
2023-03-06T04:53:52.837Z,4.97
2023-03-06T04:56:19.122Z,6.20
2023-03-06T04:58:45.534Z,6.25
2023-03-06T05:01:12.062Z,10.27
2023-03-06T05:03:38.473Z,6.13
2023-03-06T05:06:05.499Z,6.25
2023-03-06T05:08:31.846Z,7.38
2023-03-06T05:11:00.672Z,5.95
2023-03-06T05:13:27.907Z,6.47
2023-03-06T05:15:54.626Z,6.75
2023-03-06T05:18:21.390Z,6.72
2023-03-06T05:20:47.804Z,6.72
2023-03-06T05:23:14.105Z,5.43
2023-03-06T05:25:40.856Z,6.18
2023-03-06T05:28:07.927Z,6.70
2023-03-06T05:30:34.307Z,6.03
2023-03-06T05:33:00.859Z,5.82
2023-03-06T05:35:27.229Z,6.60
2023-03-06T05:37:53.887Z,7.28
2023-03-06T05:40:20.569Z,8.65
2023-03-06T05:42:46.876Z,7.97
2023-03-06T05:45:13.230Z,6.68
2023-03-06T05:47:39.534Z,5.88
2023-03-06T05:50:06.098Z,6.93
2023-03-06T05:52:32.426Z,5.78
2023-03-06T05:54:58.873Z,6.47
2023-03-06T05:57:25.175Z,5.72
2023-03-06T05:59:51.658Z,7.35
2023-03-06T06:02:18.829Z,6.28
2023-03-06T06:04:45.483Z,6.57
2023-03-06T06:07:16.025Z,7.00
2023-03-06T06:09:42.977Z,7.28
2023-03-06T06:12:09.505Z,7.40
2023-03-06T06:14:35.798Z,6.85
2023-03-06T06:17:02.289Z,7.10
2023-03-06T06:19:30.473Z,6.50
2023-03-06T06:21:57.425Z,6.32
2023-03-06T06:24:26.430Z,7.75
2023-03-06T06:26:54.428Z,7.13
2023-03-06T06:29:21.834Z,8.38
2023-03-06T06:34:14.485Z,8.73
2023-03-06T06:36:41.109Z,9.35
2023-03-06T06:39:09.492Z,7.15
2023-03-06T06:41:54.811Z,6.50
2023-03-06T06:44:22.480Z,7.07
2023-03-06T06:49:36.597Z,6.43
2023-03-06T06:52:04.377Z,8.27
2023-03-06T06:54:30.661Z,6.63
2023-03-06T06:56:56.959Z,6.07
2023-03-06T06:59:23.278Z,6.28
2023-03-06T07:01:50.742Z,5.95
2023-03-06T07:06:43.900Z,5.50
2023-03-06T07:09:10.565Z,7.75
2023-03-06T07:11:38.099Z,6.53
2023-03-06T07:14:04.442Z,6.00
2023-03-06T07:16:30.935Z,6.95
2023-03-06T07:18:57.316Z,9.13
2023-03-06T07:21:23.593Z,8.60
2023-03-06T07:23:49.955Z,17.55
2023-03-06T07:26:16.267Z,21.10
2023-03-06T07:28:52.118Z,18.80
2023-03-06T07:31:21.195Z,8.55
2023-03-06T07:33:48.742Z,10.02
2023-03-06T07:38:41.360Z,6.55
2023-03-06T07:41:07.680Z,5.68
2023-03-06T07:46:00.691Z,6.28
2023-03-06T07:48:27.937Z,5.55
2023-03-06T07:50:58.058Z,6.70
2023-03-06T07:53:24.724Z,7.82
2023-03-06T07:55:51.174Z,5.00
2023-03-06T07:58:17.473Z,8.00
2023-03-06T08:00:43.819Z,6.35
2023-03-06T08:03:11.892Z,6.75
2023-03-06T08:05:38.837Z,6.20
2023-03-06T08:08:05.455Z,7.75
2023-03-06T08:10:31.795Z,5.03
2023-03-06T08:12:58.308Z,5.05
2023-03-06T08:15:24.596Z,6.15
2023-03-06T08:17:51.201Z,5.85
2023-03-06T08:20:17.788Z,7.15
2023-03-06T08:22:44.574Z,10.32
2023-03-06T08:25:11.650Z,4.55
2023-03-06T08:27:37.971Z,4.47
2023-03-06T08:30:05.716Z,5.03
2023-03-06T08:32:35.503Z,3.70
2023-03-06T08:35:06.085Z,5.25
2023-03-06T08:37:32.459Z,3.65
2023-03-06T08:39:58.765Z,4.13
2023-03-06T08:42:25.157Z,4.85
2023-03-06T08:44:51.456Z,3.47
2023-03-06T08:47:17.727Z,4.20
2023-03-06T08:49:44.043Z,3.63
2023-03-06T08:52:10.323Z,4.75
2023-03-06T08:54:36.670Z,4.47
2023-03-06T08:57:03.099Z,3.92
2023-03-06T08:59:29.423Z,3.20
2023-03-06T09:01:55.948Z,3.83
2023-03-06T09:04:22.356Z,4.10
2023-03-06T09:06:48.745Z,4.38
2023-03-06T09:09:15.085Z,3.95
2023-03-06T09:11:41.529Z,3.90
2023-03-06T09:14:07.886Z,3.85
2023-03-06T09:19:00.464Z,4.63
2023-03-06T09:21:26.810Z,4.82
2023-03-06T09:23:53.098Z,4.25
2023-03-06T09:26:19.581Z,3.85
2023-03-06T09:28:45.934Z,4.45
2023-03-06T09:31:15.278Z,5.40
2023-03-06T09:33:41.676Z,4.90
2023-03-06T09:36:10.276Z,4.15
2023-03-06T09:38:36.555Z,4.80
2023-03-06T09:41:18.909Z,3.58
2023-03-06T09:43:50.017Z,3.70
2023-03-06T09:46:16.311Z,6.00
2023-03-06T09:49:02.381Z,4.88
2023-03-06T09:51:43.873Z,4.93
2023-03-06T09:54:14.951Z,7.28
2023-03-06T09:56:48.899Z,13.50
2023-03-06T09:59:21.586Z,4.93
2023-03-06T10:02:02.678Z,6.20
2023-03-06T10:04:41.585Z,4.57
2023-03-06T10:07:23.601Z,7.00
2023-03-06T10:10:06.546Z,9.00
2023-03-06T10:12:38.650Z,4.80
2023-03-06T10:15:06.532Z,8.05
2023-03-06T10:17:41.247Z,4.70
2023-03-06T10:20:27.278Z,4.28
2023-03-06T10:23:12.149Z,5.22
2023-03-06T10:25:51.264Z,7.05
2023-03-06T10:28:21.092Z,6.80
2023-03-06T10:31:06.595Z,4.00
2023-03-06T10:33:52.735Z,5.35
2023-03-06T10:36:20.695Z,4.03
2023-03-06T10:38:48.099Z,6.30
2023-03-06T10:43:45.452Z,2.72
2023-03-06T10:46:25.866Z,5.38
2023-03-06T10:48:58.915Z,3.85
2023-03-06T10:51:26.239Z,5.10
2023-03-06T10:53:58.032Z,3.42
2023-03-06T10:56:29.414Z,3.63
2023-03-06T10:59:08.528Z,6.30
2023-03-06T11:01:35.322Z,3.75
2023-03-06T11:04:26.550Z,5.03
2023-03-06T11:07:24.443Z,5.82
2023-03-06T11:12:29.114Z,6.03
2023-03-06T11:15:20.079Z,7.68
2023-03-06T11:18:09.670Z,6.70
2023-03-06T11:20:51.833Z,6.50
2023-03-06T11:23:22.014Z,8.45
2023-03-06T11:25:55.448Z,6.60
2023-03-06T11:31:11.490Z,8.32
2023-03-06T11:34:11.731Z,8.73
2023-03-06T11:36:52.788Z,7.63
2023-03-06T11:39:28.994Z,8.40
2023-03-06T11:44:52.949Z,9.43
2023-03-06T11:47:28.395Z,8.05
2023-03-06T11:50:12.117Z,8.73
2023-03-06T11:52:44.216Z,9.00
2023-03-06T11:55:16.192Z,7.63
2023-03-06T11:58:09.438Z,9.18
2023-03-06T12:01:06.112Z,9.63
2023-03-06T12:04:00.727Z,7.85
2023-03-06T12:06:51.405Z,7.63
2023-03-06T12:09:29.842Z,7.35
2023-03-06T12:12:05.255Z,9.63
2023-03-06T12:14:39.341Z,11.20
2023-03-06T12:17:26.211Z,7.70
2023-03-06T12:20:16.350Z,8.27
2023-03-06T12:23:02.569Z,6.85
2023-03-06T12:25:37.567Z,7.60
2023-03-06T12:30:39.305Z,7.03
2023-03-06T12:33:07.343Z,5.80
2023-03-06T12:35:37.554Z,8.30
2023-03-06T12:40:48.916Z,5.75
2023-03-06T12:43:34.094Z,8.65
2023-03-06T12:46:07.383Z,7.97
2023-03-06T12:48:37.438Z,5.03
2023-03-06T12:51:07.597Z,5.47
2023-03-06T12:53:34.408Z,5.68
2023-03-06T12:56:02.572Z,7.80
2023-03-06T12:58:28.862Z,4.10
2023-03-06T13:01:04.788Z,6.20
2023-03-06T13:03:37.519Z,5.75
2023-03-06T13:06:06.865Z,4.45
2023-03-06T13:08:37.340Z,3.95
2023-03-06T13:11:09.555Z,4.85
2023-03-06T13:13:44.134Z,5.40
2023-03-06T13:16:18.411Z,3.33
2023-03-06T13:18:44.709Z,3.10
2023-03-06T13:21:42.481Z,3.55
2023-03-06T13:26:43.958Z,6.18
2023-03-06T13:29:38.209Z,3.97
2023-03-06T13:32:13.528Z,2.95
2023-03-06T13:34:41.629Z,4.90
2023-03-06T13:37:13.964Z,3.72
2023-03-06T13:39:52.422Z,3.47
2023-03-06T13:42:56.003Z,4.32
2023-03-06T13:45:39.231Z,4.28
2023-03-06T13:48:41.536Z,4.63
2023-03-06T13:50:53.418Z,3.70
2023-03-06T13:53:56.606Z,5.03
2023-03-06T13:57:07.552Z,2.50
2023-03-06T14:00:09.837Z,4.38
2023-03-06T14:02:36.625Z,4.32
2023-03-06T14:07:39.205Z,3.97
2023-03-06T14:10:11.431Z,4.68
2023-03-06T14:12:41.912Z,3.75
2023-03-06T14:15:24.902Z,4.13
2023-03-06T14:18:14.056Z,5.53
2023-03-06T14:20:44.606Z,9.00
2023-03-06T14:23:23.388Z,5.35
2023-03-06T14:26:02.625Z,3.83
2023-03-06T14:28:31.049Z,5.40
2023-03-06T14:30:59.420Z,2.90
2023-03-06T14:33:32.185Z,6.13
2023-03-06T14:36:02.158Z,3.72
2023-03-06T14:38:34.169Z,3.90
2023-03-06T14:41:01.488Z,2.53
2023-03-06T14:43:27.997Z,3.10
2023-03-06T14:46:02.539Z,2.08
2023-03-06T14:48:48.682Z,4.53
2023-03-06T14:51:21.673Z,3.70
2023-03-06T14:53:50.858Z,3.83
2023-03-06T14:56:21.563Z,3.17
2023-03-06T14:59:01.390Z,2.58
2023-03-06T15:01:37.538Z,2.65
2023-03-06T15:04:29.582Z,3.78
2023-03-06T15:06:57.525Z,3.95
2023-03-06T15:09:26.176Z,2.78
2023-03-06T15:12:07.997Z,1.77
2023-03-06T15:17:19.029Z,3.40
2023-03-06T15:19:47.549Z,2.80
2023-03-06T15:22:40.120Z,2.47
2023-03-06T15:25:21.625Z,4.50
2023-03-06T15:27:54.315Z,2.97
2023-03-06T15:30:24.881Z,2.80
2023-03-06T15:32:51.643Z,3.42
2023-03-06T15:35:24.103Z,3.00
2023-03-06T15:37:51.301Z,2.15
2023-03-06T15:40:22.560Z,3.80
2023-03-06T15:42:49.256Z,3.90
2023-03-06T15:45:20.944Z,5.65
2023-03-06T15:47:48.832Z,5.07
2023-03-06T15:50:16.402Z,5.38
2023-03-06T15:52:44.325Z,2.72
2023-03-06T15:55:12.469Z,2.97
2023-03-06T15:57:43.724Z,3.45
2023-03-06T16:00:27.402Z,3.60
2023-03-06T16:02:58.334Z,2.60
2023-03-06T16:05:26.301Z,2.60
2023-03-06T16:07:52.973Z,2.53
2023-03-06T16:10:22.649Z,3.28
2023-03-06T16:13:04.520Z,5.15
2023-03-06T16:18:14.752Z,8.45
2023-03-06T16:20:41.254Z,9.50
2023-03-06T16:23:08.037Z,9.32
2023-03-06T16:25:34.476Z,10.75
2023-03-06T16:28:01.987Z,10.73
2023-03-06T16:30:33.993Z,10.32
2023-03-06T16:33:00.781Z,11.88
2023-03-06T16:35:27.870Z,13.00
2023-03-06T16:37:54.174Z,11.38
2023-03-06T16:40:26.586Z,19.52
2023-03-06T16:42:55.073Z,8.95
2023-03-06T16:45:22.633Z,8.52
2023-03-06T16:50:30.905Z,12.00
2023-03-06T16:52:58.404Z,9.80
2023-03-06T16:55:26.558Z,10.43
2023-03-06T16:57:54.059Z,12.52
2023-03-06T17:00:21.860Z,8.77
2023-03-06T17:02:48.908Z,8.25
2023-03-06T17:05:15.386Z,8.90
2023-03-06T17:07:41.710Z,9.27
2023-03-06T17:10:11.097Z,6.07
2023-03-06T17:12:37.572Z,8.57
2023-03-06T17:17:42.780Z,9.00
2023-03-06T17:20:11.427Z,13.45
2023-03-06T17:22:40.831Z,14.13
2023-03-06T17:25:08.752Z,13.07
2023-03-06T17:27:36.310Z,13.85
2023-03-06T17:30:04.249Z,11.52
2023-03-06T17:32:30.639Z,10.20
2023-03-06T17:34:56.964Z,11.32
2023-03-06T17:37:23.350Z,12.20
2023-03-06T17:39:50.489Z,11.68
2023-03-06T17:42:16.876Z,9.10
2023-03-06T17:44:43.245Z,10.88
2023-03-06T17:47:09.540Z,12.32
2023-03-06T17:49:35.898Z,11.52
2023-03-06T17:52:02.200Z,9.48
2023-03-06T17:54:28.755Z,9.50
2023-03-06T17:56:55.328Z,15.90
2023-03-06T17:59:21.669Z,19.85
2023-03-06T18:01:48.011Z,11.23
2023-03-06T18:04:14.370Z,11.95
2023-03-06T18:06:40.697Z,8.77
2023-03-06T18:09:08.150Z,6.65
2023-03-06T18:14:00.643Z,8.70
2023-03-06T18:16:27.044Z,8.48
2023-03-06T18:18:56.290Z,11.50
2023-03-06T18:21:24.049Z,9.80
2023-03-06T18:23:50.433Z,7.43
2023-03-06T18:26:21.050Z,9.38
2023-03-06T18:28:51.572Z,7.20
2023-03-06T18:31:21.126Z,12.15
2023-03-06T18:33:48.452Z,9.02
2023-03-06T18:36:15.826Z,9.90
2023-03-06T18:38:42.207Z,7.20
2023-03-06T18:41:08.565Z,10.77
2023-03-06T18:43:36.061Z,9.20
2023-03-06T18:48:29.105Z,7.32
2023-03-06T18:50:55.717Z,6.53
2023-03-06T18:53:22.542Z,7.90
2023-03-06T18:55:53.180Z,8.45
2023-03-06T18:58:20.392Z,18.70
2023-03-06T19:00:47.042Z,11.15
2023-03-06T19:03:13.836Z,11.57
2023-03-06T19:05:45.611Z,11.15
2023-03-06T19:08:12.004Z,13.32
2023-03-06T19:10:40.645Z,13.18
2023-03-06T19:13:07.801Z,17.80
2023-03-06T19:15:34.356Z,13.02
2023-03-06T19:18:00.723Z,16.77
2023-03-06T19:20:27.160Z,16.92
2023-03-06T19:22:53.508Z,17.80
2023-03-06T19:25:20.147Z,18.08
2023-03-06T19:27:46.431Z,15.32
2023-03-06T19:30:14.637Z,15.68
2023-03-06T19:32:44.687Z,14.85
2023-03-06T19:35:11.913Z,14.98
2023-03-06T19:37:38.222Z,14.82
2023-03-06T19:40:05.406Z,13.05
2023-03-06T19:42:32.200Z,9.98
2023-03-06T19:45:01.673Z,10.50
2023-03-06T19:47:28.079Z,10.35
2023-03-06T19:49:54.394Z,9.65
2023-03-06T19:52:20.829Z,13.35
2023-03-06T19:54:47.103Z,17.15
2023-03-06T19:57:14.010Z,12.45
2023-03-06T19:59:40.321Z,12.57
2023-03-06T20:02:06.701Z,11.50
2023-03-06T20:04:34.327Z,13.35
2023-03-06T20:07:00.766Z,14.20
2023-03-06T20:09:27.243Z,15.43
2023-03-06T20:11:53.554Z,16.27
2023-03-06T20:14:19.855Z,16.10
2023-03-06T20:16:46.147Z,13.20
2023-03-06T20:19:12.465Z,14.43
2023-03-06T20:21:38.800Z,20.33
2023-03-06T20:24:07.220Z,17.73
2023-03-06T20:26:33.587Z,20.40
2023-03-06T20:29:00.223Z,17.73
2023-03-06T20:31:29.292Z,21.70
2023-03-06T20:33:58.027Z,14.50
2023-03-06T20:36:36.493Z,15.05
2023-03-06T20:39:05.540Z,14.13
2023-03-06T20:41:32.830Z,18.00
2023-03-06T20:44:00.833Z,15.77
2023-03-06T20:46:27.470Z,16.65
2023-03-06T20:48:54.135Z,19.40
2023-03-06T20:51:32.559Z,19.83
2023-03-06T20:54:00.966Z,14.93
2023-03-06T20:56:30.073Z,16.88
2023-03-06T20:58:56.680Z,16.63
2023-03-06T21:01:23.069Z,15.88
2023-03-06T21:03:50.186Z,16.83
2023-03-06T21:06:16.766Z,14.98
2023-03-06T21:08:43.734Z,15.32
2023-03-06T21:11:10.196Z,14.05
2023-03-06T21:13:36.533Z,14.23
2023-03-06T21:16:07.979Z,11.50
2023-03-06T21:18:34.370Z,14.07
2023-03-06T21:21:08.410Z,15.55
2023-03-06T21:23:34.876Z,14.27
2023-03-06T21:26:01.268Z,15.70
2023-03-06T21:28:27.727Z,14.25
2023-03-06T21:30:54.082Z,15.05
2023-03-06T21:33:20.409Z,17.60
2023-03-06T21:35:50.361Z,13.40
2023-03-06T21:38:16.646Z,14.65
2023-03-06T21:40:43.972Z,14.43
2023-03-06T21:43:10.283Z,14.50
2023-03-06T21:45:36.644Z,14.32
2023-03-06T21:48:03.638Z,11.32
2023-03-06T21:50:29.948Z,15.65
2023-03-06T21:52:56.585Z,12.90
2023-03-06T21:55:23.178Z,14.23
2023-03-06T21:57:53.680Z,12.35
2023-03-06T22:00:21.194Z,16.35
2023-03-06T22:02:47.491Z,14.77
2023-03-06T22:05:13.950Z,13.30
2023-03-06T22:07:40.368Z,12.63
2023-03-06T22:10:07.453Z,11.55
2023-03-06T22:12:34.187Z,11.48
2023-03-06T22:15:00.621Z,12.10
2023-03-06T22:17:26.913Z,12.48
2023-03-06T22:19:53.224Z,14.18
2023-03-06T22:22:19.569Z,12.98
2023-03-06T22:24:47.651Z,11.85
2023-03-06T22:27:15.073Z,12.32
2023-03-06T22:29:41.587Z,12.05
2023-03-06T22:32:08.515Z,11.18
2023-03-06T22:34:34.970Z,13.13
2023-03-06T22:37:01.307Z,13.90
2023-03-06T22:39:27.651Z,11.88
2023-03-06T22:41:57.167Z,10.32
2023-03-06T22:44:23.831Z,11.68
2023-03-06T22:46:50.280Z,11.43
2023-03-06T22:49:16.562Z,10.95
2023-03-06T22:51:43.502Z,9.82
2023-03-06T22:54:10.904Z,12.98
2023-03-06T22:56:37.235Z,10.85
2023-03-06T22:59:03.865Z,12.43
2023-03-06T23:01:32.666Z,11.48
2023-03-06T23:04:03.917Z,10.98
2023-03-06T23:06:39.445Z,11.02
2023-03-06T23:09:09.284Z,11.95
2023-03-06T23:11:35.626Z,11.52
2023-03-06T23:14:02.139Z,9.75
2023-03-06T23:16:28.476Z,11.75
2023-03-06T23:18:54.788Z,10.38
2023-03-06T23:21:22.658Z,12.15
2023-03-06T23:23:51.078Z,11.35
2023-03-06T23:26:19.048Z,11.75
2023-03-06T23:28:45.523Z,11.57
2023-03-06T23:31:18.103Z,13.60
2023-03-06T23:33:44.580Z,14.93
2023-03-06T23:36:14.087Z,14.77
2023-03-06T23:38:40.630Z,15.25
2023-03-06T23:41:10.735Z,14.48
2023-03-06T23:43:37.369Z,12.85
2023-03-06T23:46:04.766Z,14.38
2023-03-06T23:48:31.152Z,14.00
2023-03-06T23:50:57.712Z,12.73
2023-03-06T23:53:24.458Z,13.05
2023-03-06T23:55:52.410Z,17.05
2023-03-06T23:58:20.348Z,17.98
